Terminal Aerodrome Forecast
Issued by NWS

Home | Current Version | Previous Version | Text Only | Print | Product List | Glossary On
Versions: 1 2 3 4 5 6 7 8 9 10 11 12 13 14 15 16 17 18 19 20 21 22 23 24 25 26 27 28 29 30 31 32
000
FTUS46 KEKA 290546
TAFACV
TAF
KACV 290546Z 2906/3006 33005KT P6SM SKC
     FM290800 35005KT P6SM SCT010
     FM291200 05002KT P6SM FEW006 BKN010
     FM291700 34008KT P6SM SKC
     FM292200 34010G16KT P6SM SKC=

USA.gov is the U.S. government's official web portal to all federal, state and local government web resources and services.